Sandy Lake Airport
CZSJ : now visible

Airfield :











YOU CAN JOIN US ON...

 
LOGIN :

Register | Disclaimer

   EN    FR    IT 

 









Legend :    VFR   Marginal VFR   IFR   Intensive IFR   Very Intensive IFR
Visi :
Ceiling :
>= 8 km
>= 3000ft
5 to 8 km
1000 to 3000 ft
1500m to 5 km
500 to 1000 ft
800 to 1500m
200 to 500 ft
< 800m
< 200 ft
Symbols :   Thunderstorms  Fog  Heavy snow  Heavy precipitations  Wind > 20 kt






- Airport Elevation : 951 ft
- IATA code : ZSJ


CZSJ - Sandy Lake

CURRENT METAR :
  • 071902Z AUTO 28005KT 6SM BR OVC006 03/02 A2955 RMK SLP025

EXPIRED METARs :
  • 071858Z AUTO 27005KT 5SM BR OVC006 03/02 A2955 RMK SLP024
  • 071832Z AUTO VRB02KT 6SM BR OVC004 03/02 A2955 RMK SLP022
  • 071800Z AUTO 15003KT 120V230 3SM BR OVC004 02/02 A2954 RMK PCPN 0.5MM PAST HR SLP021
  • 071739Z AUTO 15004KT 3SM BR OVC004 02/01 A2954 RMK SLP020
  • 071729Z AUTO 15003KT 100V170 3SM -RA BR OVC004 01/01 A2954 RMK SLP020
  • 071720Z AUTO 14004KT 3SM BR OVC004 01/01 A2954 RMK SLP020
  • 071700Z AUTO 15004KT 120V190 2SM -RA BR OVC004 01/01 A2954 RMK VIS VRB 1 1/4-3 SLP020
  • 071656Z AUTO 16003KT 120V190 2 1/2SM -RA BR OVC004 01/01 A2954 RMK VIS VRB 1 1/2-3 SLP020
  • 071642Z AUTO 15003KT 3SM -RA BR OVC004 01/01 A2954 RMK SLP020

TAF TAF CZSJ
Valid from the 07 at 16:00 until the 07 at 22:00 UTC


071547Z 0716/0722 12010KT 2SM -RA BR VV004
TEMPO 0716/0720 6SM -RA BR OVC012
BECMG 0717/0719 26008G18KT
FM072000 26008G18KT P6SM BKN015 RMK FCST BASED ON AUTO OBS. NXT FCST WILL BE ISSUED AT 080945Z



MET'MAP, your aeronautical weather chart ! - Copyright ORBIFLY December 2007 - Disclaimer

ORBIFLY MET'MAP TEAM :

Programming & Development : Alexandra Zaïnal
Concept & original design : Baudouin d'Aumeries
Assistance for programming : Marc-Olivier Méhu
Technical & hardware support : Manuel Goepfert

Contact : metmap@orbifly.com




SOURCES & CREDITS :

   NOAA       Earth
Advisory